ALK127 VCBI-VOMM
Flight info
| Callsign | ALK127 |
|---|---|
| Flight time | 1h 0m |
| Altitude | 33000 |
| Route | SAGOR A465 AKMIL AKMIL2F |
| Aircraft | A320/M-SDE3FGHIRWY/LB1 |
Departure
| Time | 2026-04-25 13:45 |
|---|---|
| Airport | Bandaranaike International Colombo Airport (VCBI) |
Arrival
| Time | 2026-04-25 14:45 |
|---|---|
| Airport | Chennai International Airport (VOMM) |
| Time | Latitude | Longitude | Altitude | Speed | Heading |
|---|---|---|---|---|---|
| 2026-04-25 13:23 | 7.17825 | 79.88624 | 27 ft | 0 kts | 37° |
| 2026-04-25 13:34 | 7.17818 | 79.88619 | 27 ft | 4 kts | 41° |
| 2026-04-25 13:35 | 7.17800 | 79.88599 | 27 ft | 4 kts | 58° |
| 2026-04-25 13:35 | 7.17781 | 79.88572 | 27 ft | 4 kts | 4° |
| 2026-04-25 13:35 | 7.17768 | 79.88573 | 27 ft | 4 kts | 343° |
| 2026-04-25 13:35 | 7.17740 | 79.88593 | 27 ft | 4 kts | 308° |
| 2026-04-25 13:36 | 7.17736 | 79.88598 | 27 ft | 0 kts | 307° |
| 2026-04-25 13:38 | 7.17739 | 79.88594 | 27 ft | 3 kts | 307° |
| 2026-04-25 13:38 | 7.17791 | 79.88524 | 27 ft | 16 kts | 307° |
| 2026-04-25 13:39 | 7.17845 | 79.88452 | 27 ft | 10 kts | 307° |
| 2026-04-25 13:39 | 7.17879 | 79.88431 | 27 ft | 5 kts | 354° |
| 2026-04-25 13:39 | 7.17918 | 79.88450 | 28 ft | 12 kts | 37° |
| 2026-04-25 13:39 | 7.17994 | 79.88508 | 27 ft | 13 kts | 37° |
| 2026-04-25 13:40 | 7.18070 | 79.88566 | 27 ft | 15 kts | 37° |
| 2026-04-25 13:40 | 7.18159 | 79.88634 | 27 ft | 17 kts | 37° |
| 2026-04-25 13:40 | 7.18263 | 79.88713 | 27 ft | 20 kts | 37° |
| 2026-04-25 13:40 | 7.18386 | 79.88807 | 27 ft | 24 kts | 37° |
| 2026-04-25 13:41 | 7.18527 | 79.88915 | 28 ft | 27 kts | 37° |
| 2026-04-25 13:41 | 7.18677 | 79.89030 | 28 ft | 27 kts | 38° |
| 2026-04-25 13:41 | 7.18832 | 79.89148 | 28 ft | 28 kts | 37° |
| 2026-04-25 13:41 | 7.18976 | 79.89259 | 27 ft | 25 kts | 37° |
| 2026-04-25 13:42 | 7.19114 | 79.89363 | 27 ft | 24 kts | 37° |
| 2026-04-25 13:42 | 7.19186 | 79.89414 | 27 ft | 7 kts | 13° |
| 2026-04-25 13:42 | 7.19221 | 79.89392 | 27 ft | 5 kts | 309° |
| 2026-04-25 13:42 | 7.19238 | 79.89368 | 27 ft | 6 kts | 307° |
| 2026-04-25 13:43 | 7.19273 | 79.89322 | 27 ft | 7 kts | 307° |
| 2026-04-25 13:43 | 7.19295 | 79.89288 | 27 ft | 4 kts | 285° |
| 2026-04-25 13:43 | 7.19290 | 79.89274 | 27 ft | 1 kts | 234° |
| 2026-04-25 13:43 | 7.19281 | 79.89266 | 27 ft | 6 kts | 221° |
| 2026-04-25 13:44 | 7.19265 | 79.89254 | 27 ft | 0 kts | 217° |
| 2026-04-25 13:44 | 7.19255 | 79.89246 | 27 ft | 11 kts | 217° |
| 2026-04-25 13:44 | 7.18982 | 79.89037 | 29 ft | 84 kts | 217° |
| 2026-04-25 13:44 | 7.18354 | 79.88558 | 28 ft | 140 kts | 217° |
| 2026-04-25 13:45 | 7.17471 | 79.87873 | 224 ft | 168 kts | 218° |
| 2026-04-25 13:45 | 7.16561 | 79.87161 | 979 ft | 163 kts | 218° |
| 2026-04-25 13:45 | 7.15675 | 79.86481 | 1743 ft | 158 kts | 219° |
| 2026-04-25 13:45 | 7.15006 | 79.85561 | 2087 ft | 176 kts | 255° |
| 2026-04-25 13:46 | 7.15178 | 79.84311 | 2449 ft | 195 kts | 302° |
| 2026-04-25 13:46 | 7.16312 | 79.83509 | 2833 ft | 211 kts | 345° |
| 2026-04-25 13:46 | 7.17815 | 79.83482 | 3161 ft | 226 kts | 9° |
| 2026-04-25 13:46 | 7.19476 | 79.83663 | 3412 ft | 254 kts | 7° |
| 2026-04-25 13:47 | 7.21308 | 79.83812 | 3877 ft | 270 kts | 6° |
| 2026-04-25 13:47 | 7.23200 | 79.83965 | 4705 ft | 275 kts | 6° |
| 2026-04-25 13:47 | 7.25114 | 79.84124 | 5525 ft | 278 kts | 6° |
| 2026-04-25 13:47 | 7.27056 | 79.84290 | 6314 ft | 282 kts | 5° |
| 2026-04-25 13:48 | 7.29024 | 79.84459 | 7083 ft | 287 kts | 5° |
| 2026-04-25 13:48 | 7.31033 | 79.84635 | 7913 ft | 290 kts | 5° |
| 2026-04-25 13:48 | 7.33056 | 79.84812 | 8662 ft | 293 kts | 5° |
| 2026-04-25 13:48 | 7.35100 | 79.84988 | 9396 ft | 297 kts | 5° |
| 2026-04-25 13:49 | 7.37167 | 79.85167 | 10106 ft | 301 kts | 5° |
| 2026-04-25 13:49 | 7.39324 | 79.85353 | 10348 ft | 322 kts | 6° |
| 2026-04-25 13:49 | 7.41623 | 79.85553 | 10653 ft | 338 kts | 6° |
| 2026-04-25 13:49 | 7.43988 | 79.85757 | 11260 ft | 344 kts | 6° |
| 2026-04-25 13:50 | 7.46385 | 79.85966 | 11922 ft | 347 kts | 6° |
| 2026-04-25 13:50 | 7.48803 | 79.86175 | 12583 ft | 350 kts | 6° |
| 2026-04-25 13:50 | 7.51242 | 79.86384 | 13228 ft | 354 kts | 6° |
| 2026-04-25 13:50 | 7.53709 | 79.86596 | 13835 ft | 358 kts | 6° |
| 2026-04-25 13:51 | 7.56202 | 79.86813 | 14437 ft | 361 kts | 6° |
| 2026-04-25 13:51 | 7.58714 | 79.87035 | 15019 ft | 365 kts | 6° |
| 2026-04-25 13:51 | 7.61258 | 79.87259 | 15590 ft | 368 kts | 6° |
| 2026-04-25 13:51 | 7.63830 | 79.87482 | 16163 ft | 374 kts | 5° |
| 2026-04-25 13:52 | 7.66430 | 79.87707 | 16746 ft | 376 kts | 6° |
| 2026-04-25 13:52 | 7.69047 | 79.87933 | 17282 ft | 379 kts | 6° |
| 2026-04-25 13:52 | 7.71690 | 79.88163 | 17802 ft | 383 kts | 6° |
| 2026-04-25 13:52 | 7.74356 | 79.88393 | 18309 ft | 386 kts | 6° |
| 2026-04-25 13:53 | 7.77044 | 79.88625 | 18806 ft | 390 kts | 6° |
| 2026-04-25 13:53 | 7.79755 | 79.88862 | 19300 ft | 392 kts | 6° |
| 2026-04-25 13:53 | 7.82485 | 79.89103 | 19794 ft | 395 kts | 6° |
| 2026-04-25 13:53 | 7.85237 | 79.89344 | 20283 ft | 398 kts | 6° |
| 2026-04-25 13:54 | 7.88010 | 79.89587 | 20759 ft | 401 kts | 6° |
| 2026-04-25 13:54 | 7.90798 | 79.89831 | 21221 ft | 404 kts | 6° |
| 2026-04-25 13:54 | 7.93609 | 79.90077 | 21683 ft | 407 kts | 6° |
| 2026-04-25 13:54 | 7.96442 | 79.90325 | 22144 ft | 410 kts | 6° |
| 2026-04-25 13:55 | 7.99293 | 79.90573 | 22595 ft | 412 kts | 6° |
| 2026-04-25 13:55 | 8.02161 | 79.90822 | 23031 ft | 415 kts | 6° |
| 2026-04-25 13:55 | 8.05050 | 79.91070 | 23449 ft | 418 kts | 5° |
| 2026-04-25 13:55 | 8.07960 | 79.91319 | 23851 ft | 420 kts | 5° |
| 2026-04-25 13:56 | 8.10882 | 79.91573 | 24237 ft | 423 kts | 5° |
| 2026-04-25 13:56 | 8.13823 | 79.91833 | 24602 ft | 426 kts | 5° |
| 2026-04-25 13:56 | 8.16785 | 79.92095 | 24957 ft | 429 kts | 5° |
| 2026-04-25 13:56 | 8.19770 | 79.92358 | 25303 ft | 431 kts | 5° |
| 2026-04-25 13:57 | 8.22769 | 79.92620 | 25626 ft | 434 kts | 5° |
| 2026-04-25 13:57 | 8.24770 | 79.92794 | 25851 ft | 436 kts | 5° |
| 2026-04-25 13:57 | 8.28831 | 79.93147 | 26290 ft | 440 kts | 5° |
| 2026-04-25 13:57 | 8.31890 | 79.93415 | 26599 ft | 442 kts | 5° |
| 2026-04-25 13:58 | 8.34961 | 79.93683 | 26903 ft | 445 kts | 5° |
| 2026-04-25 13:58 | 8.38060 | 79.93953 | 27188 ft | 447 kts | 5° |
| 2026-04-25 13:58 | 8.41169 | 79.94224 | 27460 ft | 450 kts | 5° |
| 2026-04-25 13:58 | 8.44295 | 79.94497 | 27745 ft | 452 kts | 5° |
| 2026-04-25 13:59 | 8.47436 | 79.94774 | 28014 ft | 455 kts | 5° |
| 2026-04-25 13:59 | 8.50597 | 79.95054 | 28280 ft | 457 kts | 5° |
| 2026-04-25 13:59 | 8.53778 | 79.95337 | 28539 ft | 460 kts | 5° |
| 2026-04-25 13:59 | 8.56976 | 79.95618 | 28799 ft | 462 kts | 5° |
| 2026-04-25 14:00 | 8.60187 | 79.95895 | 29059 ft | 465 kts | 5° |
| 2026-04-25 14:00 | 8.63418 | 79.96175 | 29306 ft | 467 kts | 5° |
| 2026-04-25 14:00 | 8.66658 | 79.96456 | 29548 ft | 469 kts | 5° |
| 2026-04-25 14:00 | 8.69915 | 79.96739 | 29788 ft | 471 kts | 5° |
| 2026-04-25 14:01 | 8.73190 | 79.97021 | 30021 ft | 473 kts | 5° |
| 2026-04-25 14:01 | 8.76473 | 79.97305 | 30246 ft | 475 kts | 5° |
| 2026-04-25 14:01 | 8.79773 | 79.97592 | 30476 ft | 477 kts | 5° |
| 2026-04-25 14:01 | 8.83087 | 79.97881 | 30698 ft | 479 kts | 5° |
| 2026-04-25 14:02 | 8.86412 | 79.98172 | 30917 ft | 480 kts | 5° |
| 2026-04-25 14:02 | 8.89744 | 79.98464 | 31128 ft | 481 kts | 5° |
| 2026-04-25 14:02 | 8.93081 | 79.98762 | 31405 ft | 481 kts | 5° |
| 2026-04-25 14:02 | 8.94164 | 79.98860 | 31515 ft | 480 kts | 5° |
| 2026-04-25 14:03 | 8.99733 | 79.99360 | 32067 ft | 478 kts | 5° |
| 2026-04-25 14:03 | 9.03044 | 79.99653 | 32395 ft | 477 kts | 5° |
| 2026-04-25 14:03 | 9.06348 | 79.99941 | 32703 ft | 476 kts | 5° |
| 2026-04-25 14:03 | 9.09649 | 80.00225 | 32830 ft | 474 kts | 5° |
| 2026-04-25 14:04 | 9.12889 | 80.00506 | 32850 ft | 461 kts | 5° |
| 2026-04-25 14:04 | 9.19221 | 80.01060 | 32861 ft | 454 kts | 5° |
| 2026-04-25 14:05 | 9.25513 | 80.01612 | 32869 ft | 453 kts | 5° |
| 2026-04-25 14:05 | 9.31782 | 80.02164 | 32868 ft | 452 kts | 5° |
| 2026-04-25 14:06 | 9.38050 | 80.02715 | 32869 ft | 452 kts | 5° |
| 2026-04-25 14:06 | 9.44319 | 80.03257 | 32868 ft | 452 kts | 5° |
| 2026-04-25 14:07 | 9.50587 | 80.03808 | 32867 ft | 452 kts | 5° |
| 2026-04-25 14:07 | 9.56848 | 80.04369 | 32866 ft | 451 kts | 5° |
| 2026-04-25 14:08 | 9.63105 | 80.04918 | 32864 ft | 451 kts | 5° |
| 2026-04-25 14:08 | 9.69369 | 80.05473 | 32864 ft | 452 kts | 5° |
| 2026-04-25 14:09 | 9.75633 | 80.06021 | 32866 ft | 451 kts | 5° |
| 2026-04-25 14:09 | 9.81890 | 80.06571 | 32863 ft | 451 kts | 5° |
| 2026-04-25 14:10 | 9.88136 | 80.07125 | 32862 ft | 451 kts | 5° |
| 2026-04-25 14:10 | 9.94386 | 80.07676 | 32859 ft | 451 kts | 5° |
| 2026-04-25 14:11 | 10.00641 | 80.08211 | 32859 ft | 451 kts | 4° |
| 2026-04-25 14:11 | 10.06914 | 80.08435 | 32858 ft | 451 kts | 0° |
| 2026-04-25 14:12 | 10.13187 | 80.08430 | 32856 ft | 451 kts | 0° |
| 2026-04-25 14:12 | 10.19458 | 80.08456 | 32855 ft | 450 kts | 1° |
| 2026-04-25 14:13 | 10.25728 | 80.08557 | 32854 ft | 451 kts | 1° |
| 2026-04-25 14:13 | 10.31997 | 80.08679 | 32855 ft | 451 kts | 1° |
| 2026-04-25 14:14 | 10.38272 | 80.08787 | 32857 ft | 451 kts | 1° |
| 2026-04-25 14:14 | 10.44546 | 80.08881 | 32853 ft | 451 kts | 1° |
| 2026-04-25 14:15 | 10.50784 | 80.08976 | 32857 ft | 451 kts | 1° |
| 2026-04-25 14:15 | 10.57072 | 80.09081 | 32858 ft | 452 kts | 1° |
| 2026-04-25 14:16 | 10.63365 | 80.09186 | 32859 ft | 452 kts | 1° |
| 2026-04-25 14:16 | 10.69655 | 80.09292 | 32861 ft | 452 kts | 1° |
| 2026-04-25 14:17 | 10.75946 | 80.09404 | 32855 ft | 451 kts | 1° |
| 2026-04-25 14:17 | 10.82229 | 80.09525 | 32856 ft | 452 kts | 1° |
| 2026-04-25 14:18 | 10.88520 | 80.09646 | 32852 ft | 452 kts | 1° |
| 2026-04-25 14:18 | 10.93751 | 80.09746 | 32851 ft | 453 kts | 1° |
| 2026-04-25 14:19 | 11.00051 | 80.09860 | 32855 ft | 453 kts | 0° |
| 2026-04-25 14:19 | 11.06350 | 80.09979 | 32852 ft | 453 kts | 1° |
| 2026-04-25 14:20 | 11.12659 | 80.10106 | 32852 ft | 454 kts | 0° |
| 2026-04-25 14:20 | 11.18977 | 80.10230 | 32857 ft | 454 kts | 0° |
| 2026-04-25 14:21 | 11.25300 | 80.10352 | 32856 ft | 455 kts | 0° |
| 2026-04-25 14:21 | 11.31627 | 80.10468 | 32857 ft | 455 kts | 0° |
| 2026-04-25 14:22 | 11.37957 | 80.10592 | 32858 ft | 455 kts | 0° |
| 2026-04-25 14:22 | 11.44294 | 80.10724 | 32853 ft | 457 kts | 0° |
| 2026-04-25 14:22 | 11.47495 | 80.10782 | 32119 ft | 461 kts | 0° |
| 2026-04-25 14:23 | 11.50660 | 80.10838 | 31535 ft | 447 kts | 0° |
| 2026-04-25 14:23 | 11.53727 | 80.10896 | 31013 ft | 434 kts | 360° |
| 2026-04-25 14:23 | 11.56695 | 80.10955 | 30511 ft | 421 kts | 360° |
| 2026-04-25 14:23 | 11.59617 | 80.11012 | 30025 ft | 419 kts | 359° |
| 2026-04-25 14:24 | 11.62529 | 80.11069 | 29541 ft | 418 kts | 359° |
| 2026-04-25 14:24 | 11.65431 | 80.11126 | 29066 ft | 417 kts | 360° |
| 2026-04-25 14:24 | 11.68322 | 80.11182 | 28602 ft | 415 kts | 360° |
| 2026-04-25 14:24 | 11.71200 | 80.11236 | 28136 ft | 413 kts | 0° |
| 2026-04-25 14:25 | 11.74065 | 80.11291 | 27674 ft | 410 kts | 0° |
| 2026-04-25 14:25 | 11.76913 | 80.11344 | 27214 ft | 408 kts | 0° |
| 2026-04-25 14:25 | 11.79744 | 80.11396 | 26741 ft | 406 kts | 1° |
| 2026-04-25 14:25 | 11.81610 | 80.11432 | 26422 ft | 405 kts | 1° |
| 2026-04-25 14:26 | 11.85348 | 80.11667 | 25806 ft | 401 kts | 11° |
| 2026-04-25 14:26 | 11.88028 | 80.12393 | 25346 ft | 397 kts | 22° |
| 2026-04-25 14:26 | 11.90565 | 80.13475 | 24871 ft | 394 kts | 24° |
| 2026-04-25 14:26 | 11.93083 | 80.14562 | 24392 ft | 392 kts | 24° |
| 2026-04-25 14:27 | 11.95594 | 80.15639 | 23913 ft | 390 kts | 24° |
| 2026-04-25 14:27 | 11.98087 | 80.16704 | 23428 ft | 387 kts | 24° |
| 2026-04-25 14:27 | 12.00561 | 80.17762 | 22954 ft | 384 kts | 24° |
| 2026-04-25 14:27 | 12.03023 | 80.18818 | 22478 ft | 382 kts | 24° |
| 2026-04-25 14:28 | 12.05466 | 80.19865 | 22010 ft | 380 kts | 24° |
| 2026-04-25 14:28 | 12.07899 | 80.20906 | 21551 ft | 378 kts | 24° |
| 2026-04-25 14:28 | 12.10315 | 80.21941 | 21091 ft | 375 kts | 24° |
| 2026-04-25 14:28 | 12.12714 | 80.22970 | 20642 ft | 373 kts | 24° |
| 2026-04-25 14:29 | 12.15102 | 80.23996 | 20194 ft | 371 kts | 24° |
| 2026-04-25 14:29 | 12.17475 | 80.25016 | 19748 ft | 369 kts | 24° |
| 2026-04-25 14:29 | 12.19829 | 80.26028 | 19312 ft | 366 kts | 24° |
| 2026-04-25 14:29 | 12.22166 | 80.27034 | 18879 ft | 363 kts | 24° |
| 2026-04-25 14:30 | 12.24489 | 80.28035 | 18447 ft | 361 kts | 23° |
| 2026-04-25 14:30 | 12.29093 | 80.30014 | 17596 ft | 357 kts | 23° |
| 2026-04-25 14:30 | 12.31375 | 80.30993 | 17175 ft | 355 kts | 23° |
| 2026-04-25 14:31 | 12.33646 | 80.31936 | 16759 ft | 350 kts | 19° |
| 2026-04-25 14:31 | 12.35992 | 80.32499 | 16522 ft | 343 kts | 11° |
| 2026-04-25 14:31 | 12.38299 | 80.32935 | 16301 ft | 335 kts | 11° |
| 2026-04-25 14:31 | 12.40579 | 80.33369 | 15935 ft | 332 kts | 11° |
| 2026-04-25 14:32 | 12.42841 | 80.33799 | 15529 ft | 327 kts | 12° |
| 2026-04-25 14:32 | 12.45069 | 80.34223 | 14883 ft | 324 kts | 12° |
| 2026-04-25 14:32 | 12.47242 | 80.34636 | 14463 ft | 311 kts | 12° |
| 2026-04-25 14:32 | 12.49328 | 80.35027 | 14107 ft | 299 kts | 12° |
| 2026-04-25 14:33 | 12.51328 | 80.35399 | 13770 ft | 287 kts | 13° |
| 2026-04-25 14:33 | 12.53283 | 80.35773 | 13444 ft | 285 kts | 13° |
| 2026-04-25 14:33 | 12.55225 | 80.36149 | 13113 ft | 284 kts | 13° |
| 2026-04-25 14:33 | 12.57157 | 80.36523 | 12778 ft | 282 kts | 13° |
| 2026-04-25 14:34 | 12.59084 | 80.36894 | 12444 ft | 282 kts | 13° |
| 2026-04-25 14:34 | 12.61007 | 80.37261 | 12107 ft | 281 kts | 13° |
| 2026-04-25 14:34 | 12.62926 | 80.37627 | 11767 ft | 281 kts | 13° |
| 2026-04-25 14:34 | 12.64848 | 80.37996 | 11424 ft | 282 kts | 13° |
| 2026-04-25 14:35 | 12.66773 | 80.38363 | 11072 ft | 280 kts | 13° |
| 2026-04-25 14:35 | 12.68693 | 80.38729 | 10727 ft | 282 kts | 13° |
| 2026-04-25 14:35 | 12.70606 | 80.39103 | 10385 ft | 278 kts | 13° |
| 2026-04-25 14:35 | 12.72505 | 80.39468 | 10030 ft | 276 kts | 13° |
| 2026-04-25 14:36 | 12.74400 | 80.39820 | 9661 ft | 276 kts | 13° |
| 2026-04-25 14:36 | 12.76289 | 80.40176 | 9303 ft | 276 kts | 13° |
| 2026-04-25 14:36 | 12.78169 | 80.40534 | 8933 ft | 274 kts | 13° |
| 2026-04-25 14:36 | 12.80043 | 80.40893 | 8560 ft | 273 kts | 13° |
| 2026-04-25 14:37 | 12.81910 | 80.41253 | 8191 ft | 273 kts | 13° |
| 2026-04-25 14:37 | 12.83769 | 80.41610 | 7807 ft | 271 kts | 13° |
| 2026-04-25 14:37 | 12.85622 | 80.41965 | 7419 ft | 270 kts | 13° |
| 2026-04-25 14:37 | 12.87457 | 80.42315 | 7046 ft | 272 kts | 12° |
| 2026-04-25 14:38 | 12.89389 | 80.42357 | 6670 ft | 283 kts | 350° |
| 2026-04-25 14:38 | 12.91187 | 80.41555 | 6292 ft | 287 kts | 324° |
| 2026-04-25 14:38 | 12.92565 | 80.40065 | 5912 ft | 287 kts | 311° |
| 2026-04-25 14:38 | 12.94046 | 80.38735 | 5531 ft | 281 kts | 331° |
| 2026-04-25 14:39 | 12.95811 | 80.38075 | 5298 ft | 259 kts | 354° |
| 2026-04-25 14:39 | 12.97508 | 80.37993 | 5084 ft | 240 kts | 1° |
| 2026-04-25 14:39 | 12.99134 | 80.37974 | 4835 ft | 226 kts | 1° |
| 2026-04-25 14:39 | 13.00670 | 80.37957 | 4446 ft | 222 kts | 358° |
| 2026-04-25 14:40 | 13.02217 | 80.37598 | 3763 ft | 234 kts | 336° |
| 2026-04-25 14:40 | 13.03535 | 80.36682 | 3442 ft | 225 kts | 313° |
| 2026-04-25 14:40 | 13.04403 | 80.35428 | 3313 ft | 211 kts | 294° |
| 2026-04-25 14:40 | 13.04815 | 80.34068 | 3153 ft | 192 kts | 275° |
| 2026-04-25 14:41 | 13.04828 | 80.32757 | 2918 ft | 177 kts | 258° |
| 2026-04-25 14:41 | 13.04531 | 80.31605 | 2727 ft | 160 kts | 244° |
| 2026-04-25 14:41 | 13.04143 | 80.30573 | 2535 ft | 152 kts | 245° |
| 2026-04-25 14:41 | 13.03769 | 80.29574 | 2338 ft | 149 kts | 244° |
| 2026-04-25 14:42 | 13.03400 | 80.28589 | 2144 ft | 148 kts | 245° |
| 2026-04-25 14:42 | 13.03153 | 80.27929 | 2015 ft | 147 kts | 246° |
| 2026-04-25 14:42 | 13.02671 | 80.26643 | 1757 ft | 145 kts | 245° |
| 2026-04-25 14:42 | 13.02311 | 80.25682 | 1564 ft | 144 kts | 246° |
| 2026-04-25 14:43 | 13.01951 | 80.24723 | 1373 ft | 144 kts | 246° |
| 2026-04-25 14:43 | 13.01594 | 80.23771 | 1180 ft | 143 kts | 245° |
| 2026-04-25 14:43 | 13.01237 | 80.22820 | 999 ft | 143 kts | 246° |
| 2026-04-25 14:43 | 13.00884 | 80.21876 | 797 ft | 141 kts | 247° |
| 2026-04-25 14:44 | 13.00532 | 80.20938 | 632 ft | 141 kts | 246° |
| 2026-04-25 14:44 | 13.00179 | 80.19994 | 432 ft | 143 kts | 248° |
| 2026-04-25 14:44 | 12.99831 | 80.19044 | 241 ft | 142 kts | 246° |
| 2026-04-25 14:44 | 12.99472 | 80.18111 | 70 ft | 140 kts | 247° |
| 2026-04-25 14:45 | 12.99166 | 80.17299 | 54 ft | 97 kts | 249° |
| 2026-04-25 14:45 | 12.98984 | 80.16814 | 54 ft | 53 kts | 249° |
| 2026-04-25 14:45 | 12.98872 | 80.16515 | 56 ft | 30 kts | 248° |
| 2026-04-25 14:45 | 12.98769 | 80.16379 | 56 ft | 20 kts | 219° |
| 2026-04-25 14:46 | 12.98678 | 80.16306 | 55 ft | 16 kts | 216° |
| 2026-04-25 14:46 | 12.98606 | 80.16252 | 55 ft | 8 kts | 216° |
| 2026-04-25 14:46 | 12.98567 | 80.16220 | 55 ft | 7 kts | 228° |
| 2026-04-25 14:46 | 12.98548 | 80.16183 | 55 ft | 5 kts | 248° |
| 2026-04-25 14:47 | 12.98536 | 80.16151 | 55 ft | 4 kts | 249° |
| 2026-04-25 14:47 | 12.98528 | 80.16134 | 55 ft | 3 kts | 237° |
| 2026-04-25 14:47 | 12.98470 | 80.16142 | 50 ft | 12 kts | 158° |
| 2026-04-25 14:47 | 12.98404 | 80.16170 | 55 ft | 8 kts | 155° |
| 2026-04-25 14:48 | 12.98385 | 80.16204 | 48 ft | 5 kts | 74° |
| 2026-04-25 14:48 | 12.98399 | 80.16240 | 50 ft | 7 kts | 69° |
| 2026-04-25 14:48 | 12.98422 | 80.16305 | 55 ft | 10 kts | 70° |
| 2026-04-25 14:48 | 12.98446 | 80.16370 | 49 ft | 9 kts | 70° |
| 2026-04-25 14:49 | 12.98449 | 80.16421 | 51 ft | 7 kts | 139° |
| 2026-04-25 14:49 | 12.98412 | 80.16437 | 52 ft | 5 kts | 159° |
| 2026-04-25 14:49 | 12.98394 | 80.16444 | 55 ft | 0 kts | 158° |